createdAt,value
2022-08-08T00:00:55.313Z,2.33
2022-08-08T00:03:28.333Z,1.75
2022-08-08T00:06:28.464Z,1.70
2022-08-08T00:09:35.939Z,1.92
2022-08-08T00:12:09.662Z,1.80
2022-08-08T00:14:59.779Z,1.70
2022-08-08T00:18:02.117Z,2.03
2022-08-08T00:20:45.933Z,2.03
2022-08-08T00:23:51.182Z,1.98
2022-08-08T00:26:29.476Z,1.80
2022-08-08T00:29:44.427Z,1.92
2022-08-08T00:32:34.997Z,2.30
2022-08-08T00:35:21.308Z,2.35
2022-08-08T00:38:02.162Z,2.38
2022-08-08T00:41:10.147Z,2.08
2022-08-08T00:43:21.920Z,2.20
2022-08-08T00:46:21.454Z,2.28
2022-08-08T00:49:24.071Z,2.28
2022-08-08T00:52:40.149Z,2.08
2022-08-08T00:55:56.102Z,2.28
2022-08-08T00:59:04.759Z,2.38
2022-08-08T01:01:50.714Z,2.58
2022-08-08T01:04:55.116Z,2.42
2022-08-08T01:08:00.560Z,2.30
2022-08-08T01:10:58.140Z,2.50
2022-08-08T01:13:44.393Z,2.15
2022-08-08T01:16:45.913Z,2.75
2022-08-08T01:19:52.469Z,2.40
2022-08-08T01:23:01.292Z,3.15
2022-08-08T01:25:57.545Z,2.55
2022-08-08T01:29:08.696Z,2.30
2022-08-08T01:32:15.283Z,2.45
2022-08-08T01:35:11.269Z,2.42
2022-08-08T01:38:01.265Z,2.42
2022-08-08T01:40:35.684Z,2.67
2022-08-08T01:43:50.812Z,2.55
2022-08-08T01:46:58.618Z,2.22
2022-08-08T01:50:06.365Z,2.50
2022-08-08T01:55:15.006Z,2.60
2022-08-08T01:56:26.920Z,2.55
2022-08-08T01:59:23.588Z,2.78
2022-08-08T02:02:43.172Z,2.40
2022-08-08T02:05:23.348Z,2.80
2022-08-08T02:08:05.382Z,2.63
2022-08-08T02:11:05.425Z,2.65
2022-08-08T02:13:52.659Z,2.28
2022-08-08T02:16:49.260Z,2.40
2022-08-08T02:19:58.016Z,2.70
2022-08-08T02:22:52.416Z,2.72
2022-08-08T02:25:47.400Z,2.78
2022-08-08T02:28:38.526Z,2.70
2022-08-08T02:31:58.692Z,2.85
2022-08-08T02:35:07.817Z,3.22
2022-08-08T02:38:25.278Z,3.15
2022-08-08T02:42:04.730Z,2.85
2022-08-08T02:44:57.283Z,3.08
2022-08-08T02:47:51.958Z,3.38
2022-08-08T02:50:41.351Z,2.97
2022-08-08T02:53:40.806Z,3.17
2022-08-08T02:56:39.322Z,2.85
2022-08-08T02:59:37.014Z,2.95
2022-08-08T03:02:36.947Z,2.80
2022-08-08T03:05:27.228Z,3.03
2022-08-08T03:08:27.276Z,2.88
2022-08-08T03:12:02.025Z,2.80
2022-08-08T03:16:01.432Z,3.03
2022-08-08T03:18:15.084Z,3.17
2022-08-08T03:20:57.600Z,3.15
2022-08-08T03:23:36.396Z,3.33
2022-08-08T03:26:26.175Z,3.05
2022-08-08T03:28:59.857Z,3.17
2022-08-08T03:32:06.659Z,3.33
2022-08-08T03:34:35.490Z,2.92
2022-08-08T03:37:58.863Z,3.40
2022-08-08T03:40:02.407Z,3.65
2022-08-08T03:42:32.622Z,3.22
2022-08-08T03:45:02.111Z,2.92
2022-08-08T03:48:02.967Z,3.75
2022-08-08T03:50:34.802Z,3.17
2022-08-08T03:53:11.373Z,3.75
2022-08-08T03:55:56.824Z,3.17
2022-08-08T03:58:34.520Z,3.30
2022-08-08T04:01:24.033Z,3.03
2022-08-08T04:03:58.489Z,3.30
2022-08-08T04:06:29.644Z,3.25
2022-08-08T04:09:10.405Z,3.03
2022-08-08T04:11:58.223Z,3.25
2022-08-08T04:14:44.945Z,3.72
2022-08-08T04:17:22.917Z,3.60
2022-08-08T04:20:01.936Z,3.33
2022-08-08T04:22:30.446Z,3.50
2022-08-08T04:24:58.615Z,3.38
2022-08-08T04:28:03.530Z,3.42
2022-08-08T04:30:17.960Z,3.40
2022-08-08T04:32:50.296Z,3.60
2022-08-08T04:35:22.672Z,3.67
2022-08-08T04:37:52.359Z,3.63
2022-08-08T04:40:24.272Z,3.83
2022-08-08T04:42:57.986Z,3.53
2022-08-08T04:45:33.562Z,3.40
2022-08-08T04:48:01.309Z,3.80
2022-08-08T04:50:38.556Z,3.92
2022-08-08T04:53:52.261Z,4.18
2022-08-08T04:55:59.557Z,3.90
2022-08-08T04:58:30.316Z,3.63
2022-08-08T05:00:57.644Z,3.83
2022-08-08T05:04:10.500Z,3.50
2022-08-08T05:06:18.418Z,3.47
2022-08-08T05:08:55.754Z,3.70
2022-08-08T05:11:26.106Z,3.55
2022-08-08T05:14:02.041Z,3.40
2022-08-08T05:16:52.129Z,4.03
2022-08-08T05:20:09.354Z,4.32
2022-08-08T05:22:10.608Z,4.05
2022-08-08T05:24:42.132Z,3.60
2022-08-08T05:27:16.499Z,3.70
2022-08-08T05:29:43.299Z,3.28
2022-08-08T05:32:12.857Z,3.38
2022-08-08T05:34:46.174Z,3.88
2022-08-08T05:37:19.521Z,4.03
2022-08-08T05:39:55.059Z,4.15
2022-08-08T05:42:49.170Z,4.32
2022-08-08T05:45:25.457Z,4.32
2022-08-08T05:48:01.613Z,3.60
2022-08-08T05:50:36.168Z,3.60
2022-08-08T05:53:53.863Z,3.65
2022-08-08T05:56:07.842Z,3.90
2022-08-08T05:58:57.131Z,3.72
2022-08-08T06:01:56.017Z,3.90
2022-08-08T06:04:24.316Z,3.70
2022-08-08T06:07:00.594Z,3.67
2022-08-08T06:10:00.267Z,4.00
2022-08-08T06:12:30.894Z,3.78
2022-08-08T06:15:02.988Z,3.72
2022-08-08T06:17:51.216Z,3.58
2022-08-08T06:20:27.540Z,3.63
2022-08-08T06:22:56.443Z,3.88
2022-08-08T06:26:35.174Z,2.92
2022-08-08T06:28:32.648Z,3.47
2022-08-08T06:31:03.707Z,3.20
2022-08-08T06:34:26.933Z,3.13
2022-08-08T06:36:57.776Z,2.97
2022-08-08T06:39:33.243Z,2.78
2022-08-08T06:42:03.033Z,3.00
2022-08-08T06:44:42.562Z,3.00
2022-08-08T06:47:10.562Z,3.20
2022-08-08T06:49:56.350Z,3.17
2022-08-08T06:52:27.597Z,3.30
2022-08-08T06:54:55.440Z,2.67
2022-08-08T06:57:29.436Z,2.88
2022-08-08T07:00:14.347Z,2.75
2022-08-08T07:02:52.045Z,2.63
2022-08-08T07:05:29.863Z,3.10
2022-08-08T07:08:19.638Z,3.00
2022-08-08T07:10:50.811Z,2.92
2022-08-08T07:13:25.217Z,3.08
2022-08-08T07:16:18.608Z,2.70
2022-08-08T07:19:15.869Z,2.70
2022-08-08T07:22:18.630Z,3.10
2022-08-08T07:24:58.811Z,2.53
2022-08-08T07:27:47.399Z,2.75
2022-08-08T07:30:25.658Z,2.28
2022-08-08T07:32:59.436Z,2.53
2022-08-08T07:35:31.009Z,2.83
2022-08-08T07:38:10.186Z,2.50
2022-08-08T07:40:50.487Z,2.83
2022-08-08T07:43:23.141Z,3.30
2022-08-08T07:46:24.333Z,2.53
2022-08-08T07:48:56.135Z,2.20
2022-08-08T07:51:45.278Z,2.25
2022-08-08T07:54:38.338Z,2.22
2022-08-08T07:57:17.260Z,2.13
2022-08-08T07:59:57.342Z,2.00
2022-08-08T08:02:35.825Z,2.00
2022-08-08T08:05:14.889Z,2.58
2022-08-08T08:07:45.786Z,2.50
2022-08-08T08:10:18.518Z,2.08
2022-08-08T08:13:20.506Z,2.08
2022-08-08T08:16:00.584Z,1.75
2022-08-08T08:18:52.093Z,1.67
2022-08-08T08:21:43.995Z,2.03
2022-08-08T08:24:30.961Z,2.05
2022-08-08T08:27:03.010Z,1.70
2022-08-08T08:29:31.335Z,1.90
2022-08-08T08:31:59.239Z,1.98
2022-08-08T08:34:33.470Z,2.60
2022-08-08T08:37:07.791Z,2.30
2022-08-08T08:39:59.851Z,1.85
2022-08-08T08:42:32.128Z,2.20
2022-08-08T08:45:20.829Z,2.20
2022-08-08T08:47:54.254Z,1.90
2022-08-08T08:50:32.928Z,2.05
2022-08-08T08:53:27.568Z,2.08
2022-08-08T08:56:01.268Z,2.22
2022-08-08T08:58:39.581Z,2.00
2022-08-08T09:01:13.578Z,2.05
2022-08-08T09:03:50.861Z,2.20
2022-08-08T09:06:33.726Z,2.25
2022-08-08T09:09:35.260Z,2.65
2022-08-08T09:12:16.962Z,2.40
2022-08-08T09:14:48.575Z,2.67
2022-08-08T09:17:31.445Z,2.40
2022-08-08T09:22:02.282Z,2.63
2022-08-08T09:23:01.417Z,1.80
2022-08-08T09:25:36.056Z,2.80
2022-08-08T09:28:37.545Z,2.70
2022-08-08T09:31:42.842Z,2.03
2022-08-08T09:34:32.244Z,1.88
2022-08-08T09:37:58.507Z,2.45
2022-08-08T09:40:10.768Z,1.70
2022-08-08T09:42:43.879Z,2.20
2022-08-08T09:45:54.564Z,2.05
2022-08-08T09:48:21.053Z,2.42
2022-08-08T09:50:56.079Z,2.08
2022-08-08T09:53:52.963Z,2.13
2022-08-08T09:56:22.266Z,1.98
2022-08-08T09:59:32.076Z,2.10
2022-08-08T10:02:00.171Z,2.30
2022-08-08T10:04:41.507Z,2.08
2022-08-08T10:07:13.978Z,2.05
2022-08-08T10:09:59.444Z,2.03
2022-08-08T10:12:53.947Z,1.90
2022-08-08T10:15:26.216Z,2.00
2022-08-08T10:18:07.250Z,2.03
2022-08-08T10:20:51.217Z,2.13
2022-08-08T10:23:41.980Z,2.13
2022-08-08T10:26:29.919Z,2.08
2022-08-08T10:29:08.505Z,1.92
2022-08-08T10:31:58.811Z,1.98
2022-08-08T10:34:29.180Z,2.08
2022-08-08T10:36:59.828Z,1.90
2022-08-08T10:39:43.662Z,1.65
2022-08-08T10:42:18.969Z,2.05
2022-08-08T10:44:49.487Z,1.58
2022-08-08T10:47:21.151Z,1.63
2022-08-08T10:50:01.152Z,2.03
2022-08-08T10:52:31.181Z,1.85
2022-08-08T10:55:05.232Z,2.17
2022-08-08T10:57:53.500Z,1.75
2022-08-08T11:00:22.953Z,1.55
2022-08-08T11:02:56.132Z,1.58
2022-08-08T11:05:23.641Z,1.60
2022-08-08T11:08:36.841Z,1.60
2022-08-08T11:10:39.443Z,1.95
2022-08-08T11:13:28.663Z,1.73
2022-08-08T11:16:00.656Z,1.83
2022-08-08T11:18:30.265Z,1.48
2022-08-08T11:21:00.946Z,1.60
2022-08-08T11:23:39.925Z,1.80
2022-08-08T11:26:07.346Z,1.40
2022-08-08T11:28:38.681Z,1.60
2022-08-08T11:31:08.697Z,2.00
2022-08-08T11:33:53.321Z,1.77
2022-08-08T11:36:27.867Z,1.85
2022-08-08T11:38:56.753Z,1.75
2022-08-08T11:41:24.834Z,1.80
2022-08-08T11:43:57.961Z,1.90
2022-08-08T11:46:28.062Z,1.83
2022-08-08T11:48:58.324Z,1.85
2022-08-08T11:51:30.445Z,2.00
2022-08-08T11:54:26.907Z,1.65
2022-08-08T11:56:57.600Z,1.95
2022-08-08T11:59:58.622Z,1.58
2022-08-08T12:02:39.857Z,1.33
2022-08-08T12:05:13.066Z,1.85
2022-08-08T12:07:56.161Z,1.65
2022-08-08T12:10:26.231Z,1.70
2022-08-08T12:13:07.614Z,2.05
2022-08-08T12:15:48.101Z,1.63
2022-08-08T12:18:21.301Z,1.70
2022-08-08T12:20:53.313Z,1.67
2022-08-08T12:23:42.657Z,1.50
2022-08-08T12:26:28.246Z,1.52
2022-08-08T12:29:21.331Z,1.15
2022-08-08T12:32:00.355Z,1.60
2022-08-08T12:34:51.642Z,1.25
2022-08-08T12:37:40.109Z,1.30
2022-08-08T12:40:57.267Z,1.20
2022-08-08T12:43:32.752Z,1.42
2022-08-08T12:46:19.215Z,1.33
2022-08-08T12:49:21.955Z,1.33
2022-08-08T12:51:58.531Z,1.35
2022-08-08T12:54:40.959Z,1.60
2022-08-08T12:57:16.949Z,1.35
2022-08-08T13:00:05.990Z,1.55
2022-08-08T13:02:51.665Z,1.30
2022-08-08T13:05:26.250Z,1.35
2022-08-08T13:08:16.920Z,1.20
2022-08-08T13:10:56.751Z,1.48
2022-08-08T13:13:35.431Z,1.33
2022-08-08T13:16:21.421Z,1.40
2022-08-08T13:18:58.448Z,1.50
2022-08-08T13:21:36.373Z,1.50
2022-08-08T13:24:38.759Z,1.38
2022-08-08T13:27:12.535Z,1.40
2022-08-08T13:29:53.148Z,1.42
2022-08-08T13:32:27.029Z,1.40
2022-08-08T13:34:58.885Z,1.52
2022-08-08T13:38:04.893Z,1.60
2022-08-08T13:40:17.591Z,1.38
2022-08-08T13:42:53.326Z,1.20
2022-08-08T13:45:23.995Z,1.63
2022-08-08T13:48:01.368Z,1.30
2022-08-08T13:50:34.665Z,1.23
2022-08-08T13:53:24.783Z,1.60
2022-08-08T13:56:02.055Z,1.50
2022-08-08T13:58:30.040Z,1.20
2022-08-08T14:00:57.101Z,1.20
2022-08-08T14:03:53.286Z,1.42
2022-08-08T14:06:32.558Z,1.30
2022-08-08T14:09:00.529Z,1.25
2022-08-08T14:11:47.922Z,1.80
2022-08-08T14:14:20.503Z,1.33
2022-08-08T14:16:51.054Z,1.30
2022-08-08T14:19:29.405Z,1.40
2022-08-08T14:22:18.450Z,1.40
2022-08-08T14:25:00.298Z,1.58
2022-08-08T14:27:33.247Z,1.58
2022-08-08T14:30:18.054Z,1.75
2022-08-08T14:32:52.767Z,1.63
2022-08-08T14:35:24.853Z,1.27
2022-08-08T14:38:09.519Z,1.40
2022-08-08T14:40:54.110Z,1.25
2022-08-08T14:44:01.955Z,1.48
2022-08-08T14:46:31.083Z,1.40
2022-08-08T14:49:09.500Z,1.15
2022-08-08T14:51:53.419Z,1.23
2022-08-08T14:54:28.469Z,1.35
2022-08-08T14:56:56.165Z,1.55
2022-08-08T14:59:43.908Z,1.25
2022-08-08T15:02:10.673Z,1.30
2022-08-08T15:04:42.775Z,1.10
2022-08-08T15:07:22.236Z,1.10
2022-08-08T15:09:49.838Z,1.13
2022-08-08T15:12:27.131Z,1.15
2022-08-08T15:15:06.916Z,1.17
2022-08-08T15:17:40.824Z,1.02
2022-08-08T15:20:14.226Z,1.20
2022-08-08T15:22:42.324Z,1.15
2022-08-08T15:25:17.593Z,1.20
2022-08-08T15:28:03.748Z,1.48
2022-08-08T15:30:31.825Z,0.85
2022-08-08T15:32:59.373Z,1.23
2022-08-08T15:35:27.193Z,1.13
2022-08-08T15:37:56.769Z,1.30
2022-08-08T15:40:23.414Z,1.10
2022-08-08T15:42:55.729Z,1.30
2022-08-08T15:45:23.020Z,1.20
2022-08-08T15:48:05.469Z,1.17
2022-08-08T15:51:01.833Z,1.33
2022-08-08T15:53:33.126Z,1.45
2022-08-08T15:56:00.000Z,1.23
2022-08-08T15:58:28.081Z,1.10
2022-08-08T16:00:58.444Z,1.13
2022-08-08T16:03:25.145Z,0.90
2022-08-08T16:06:01.144Z,1.20
2022-08-08T16:08:29.233Z,1.23
2022-08-08T16:13:27.172Z,1.17
2022-08-08T16:13:45.897Z,1.05
2022-08-08T16:16:17.378Z,1.05
2022-08-08T16:18:56.620Z,1.20
2022-08-08T16:21:30.666Z,1.45
2022-08-08T16:24:01.721Z,1.17
2022-08-08T16:26:34.194Z,1.10
2022-08-08T16:29:07.042Z,1.25
2022-08-08T16:31:35.749Z,1.30
2022-08-08T16:34:04.236Z,1.20
2022-08-08T16:36:33.695Z,1.30
2022-08-08T16:39:01.569Z,1.38
2022-08-08T16:41:36.756Z,1.23
2022-08-08T16:44:04.789Z,1.35
2022-08-08T16:46:36.335Z,1.48
2022-08-08T16:49:07.817Z,1.10
2022-08-08T16:55:01.420Z,1.45
2022-08-08T16:55:03.011Z,1.10
2022-08-08T16:57:23.652Z,1.25
2022-08-08T17:00:06.209Z,1.55
2022-08-08T17:02:39.498Z,1.00
2022-08-08T17:05:08.475Z,1.25
2022-08-08T17:07:37.660Z,1.48
2022-08-08T17:10:08.679Z,1.50
2022-08-08T17:12:36.431Z,1.50
2022-08-08T17:15:17.529Z,1.20
2022-08-08T17:18:02.751Z,1.20
2022-08-08T17:20:39.606Z,1.00
2022-08-08T17:23:18.479Z,1.02
2022-08-08T17:25:54.624Z,1.48
2022-08-08T17:28:34.497Z,1.30
2022-08-08T17:31:39.546Z,1.27
2022-08-08T17:34:36.107Z,1.00
2022-08-08T17:36:36.595Z,0.93
2022-08-08T17:39:05.271Z,1.02
2022-08-08T17:41:58.272Z,1.02
2022-08-08T17:44:26.965Z,1.23
2022-08-08T17:46:55.390Z,1.20
2022-08-08T17:49:24.966Z,0.93
2022-08-08T17:51:55.617Z,1.10
2022-08-08T17:54:25.929Z,1.20
2022-08-08T17:56:53.934Z,1.17
2022-08-08T17:59:23.482Z,1.00
2022-08-08T18:02:04.438Z,1.10
2022-08-08T18:04:38.516Z,0.93
2022-08-08T18:08:02.978Z,1.00
2022-08-08T18:10:04.248Z,0.90
2022-08-08T18:12:30.962Z,0.80
2022-08-08T18:14:57.673Z,1.08
2022-08-08T18:17:28.571Z,1.35
2022-08-08T18:20:43.560Z,1.27
2022-08-08T18:23:00.833Z,1.27
2022-08-08T18:25:37.521Z,1.30
2022-08-08T18:28:04.843Z,1.10
2022-08-08T18:30:33.034Z,0.98
2022-08-08T18:32:59.723Z,1.10
2022-08-08T18:35:34.200Z,0.90
2022-08-08T18:38:17.434Z,0.90
2022-08-08T18:40:46.704Z,1.20
2022-08-08T18:43:14.880Z,0.98
2022-08-08T18:46:52.464Z,0.90
2022-08-08T18:48:31.233Z,1.02
2022-08-08T18:50:58.872Z,1.00
2022-08-08T18:53:58.127Z,0.80
2022-08-08T18:56:24.235Z,1.10
2022-08-08T18:58:52.038Z,0.98
2022-08-08T19:02:24.933Z,0.95
2022-08-08T19:04:12.506Z,0.95
2022-08-08T19:06:39.809Z,0.80
2022-08-08T19:09:13.225Z,0.80
2022-08-08T19:11:46.197Z,0.93
2022-08-08T19:14:20.579Z,0.75
2022-08-08T19:16:48.278Z,1.10
2022-08-08T19:19:15.820Z,0.95
2022-08-08T19:21:49.296Z,1.00
2022-08-08T19:24:34.155Z,0.80
2022-08-08T19:27:06.515Z,0.90
2022-08-08T19:29:40.546Z,1.00
2022-08-08T19:32:12.978Z,1.00
2022-08-08T19:34:47.707Z,0.90
2022-08-08T19:37:16.103Z,1.20
2022-08-08T19:39:45.775Z,1.08
2022-08-08T19:42:17.619Z,1.05
2022-08-08T19:44:46.325Z,1.08
2022-08-08T19:47:23.328Z,0.95
2022-08-08T19:49:59.720Z,0.93
2022-08-08T19:52:35.462Z,0.85
2022-08-08T19:55:11.245Z,0.85
2022-08-08T19:57:42.561Z,0.90
2022-08-08T20:00:30.014Z,1.30
2022-08-08T20:03:00.249Z,1.15
2022-08-08T20:06:16.222Z,0.73
2022-08-08T20:08:28.278Z,0.90
2022-08-08T20:10:59.955Z,1.10
2022-08-08T20:14:13.905Z,0.82
2022-08-08T20:16:13.386Z,1.10
2022-08-08T20:18:52.086Z,1.20
2022-08-08T20:21:23.302Z,1.25
2022-08-08T20:23:54.088Z,1.10
2022-08-08T20:26:27.307Z,0.88
2022-08-08T20:28:54.549Z,0.70
2022-08-08T20:31:22.937Z,1.00
2022-08-08T20:34:27.780Z,1.17
2022-08-08T20:36:38.571Z,0.80
2022-08-08T20:39:05.985Z,0.80
2022-08-08T20:41:33.987Z,0.75
2022-08-08T20:44:01.000Z,1.38
2022-08-08T20:46:27.723Z,1.10
2022-08-08T20:48:58.137Z,1.00
2022-08-08T20:51:27.253Z,0.90
2022-08-08T20:54:04.895Z,0.82
2022-08-08T20:57:16.421Z,0.98
2022-08-08T20:59:24.989Z,0.80
2022-08-08T21:02:05.992Z,0.93
2022-08-08T21:04:35.749Z,1.15
2022-08-08T21:07:13.216Z,1.00
2022-08-08T21:10:02.074Z,0.93
2022-08-08T21:12:32.368Z,1.10
2022-08-08T21:15:06.577Z,1.02
2022-08-08T21:17:34.852Z,1.00
2022-08-08T21:20:02.584Z,0.90
2022-08-08T21:22:30.858Z,1.00
2022-08-08T21:24:58.390Z,1.10
2022-08-08T21:28:06.124Z,1.30
2022-08-08T21:30:19.284Z,0.88
2022-08-08T21:32:52.490Z,0.90
2022-08-08T21:36:17.791Z,0.70
2022-08-08T21:38:16.508Z,1.00
2022-08-08T21:40:55.765Z,0.93
2022-08-08T21:43:31.009Z,1.00
2022-08-08T21:48:07.242Z,0.98
2022-08-08T21:48:58.162Z,0.82
2022-08-08T21:54:18.265Z,1.20
2022-08-08T21:54:33.580Z,0.75
2022-08-08T21:57:02.943Z,1.00
2022-08-08T22:00:01.585Z,0.90
2022-08-08T22:02:19.415Z,0.93
2022-08-08T22:04:51.776Z,1.20
2022-08-08T22:07:18.943Z,1.05
2022-08-08T22:09:45.995Z,1.10
2022-08-08T22:12:17.078Z,0.95
2022-08-08T22:14:47.253Z,1.17
2022-08-08T22:17:17.207Z,0.90
2022-08-08T22:20:11.268Z,1.00
2022-08-08T22:22:34.504Z,1.08
2022-08-08T22:25:17.723Z,1.10
2022-08-08T22:28:02.611Z,1.02
2022-08-08T22:30:32.234Z,1.10
2022-08-08T22:33:01.328Z,1.30
2022-08-08T22:36:04.589Z,1.50
2022-08-08T22:38:17.387Z,1.08
2022-08-08T22:40:44.767Z,1.27
2022-08-08T22:43:11.540Z,1.33
2022-08-08T22:45:38.828Z,1.33
2022-08-08T22:48:06.298Z,1.15
2022-08-08T22:50:33.881Z,1.13
2022-08-08T22:54:32.760Z,0.95
2022-08-08T22:55:59.158Z,1.00
2022-08-08T22:58:29.325Z,1.30
2022-08-08T23:01:00.166Z,1.10
2022-08-08T23:03:34.332Z,1.40
2022-08-08T23:06:16.141Z,1.00
2022-08-08T23:08:54.420Z,1.20
2022-08-08T23:11:30.824Z,1.08
2022-08-08T23:14:11.340Z,1.10
2022-08-08T23:16:43.966Z,0.80
2022-08-08T23:19:15.194Z,1.23
2022-08-08T23:21:42.585Z,1.10
2022-08-08T23:24:09.323Z,1.25
2022-08-08T23:26:36.059Z,1.15
2022-08-08T23:29:06.272Z,1.08
2022-08-08T23:31:38.666Z,1.08
2022-08-08T23:34:16.415Z,1.05
2022-08-08T23:36:46.135Z,1.10
2022-08-08T23:39:12.948Z,1.00
2022-08-08T23:41:41.573Z,1.30
2022-08-08T23:44:12.742Z,0.98
2022-08-08T23:49:01.953Z,1.00
2022-08-08T23:49:26.218Z,1.00
2022-08-08T23:52:04.029Z,1.05
2022-08-08T23:55:00.150Z,1.10
2022-08-08T23:57:27.129Z,1.00
